Terminal Aerodrome Forecast
Issued by NWS Cleveland, OH

Home | Current Version | Previous Version | Graphics & Text | Print | Product List | Glossary On
Versions: 1 2 3 4 5 6 7 8 9 10 11 12 13 14 15 16 17 18 19
000
FTUS41 KCLE 201300 AAA
TAFYNG
TAF AMD
KYNG 201314Z 2013/2112 16005KT P6SM SCT006 BKN015 OVC050
     FM201430 16005KT P6SM BKN025
     FM202100 20006KT P6SM SCT050
     FM210900 13002KT 4SM BR SKC=

USA.gov is the U.S. government's official web portal to all federal, state and local government web resources and services.